Denver, Colorado
Current Conditions -  °F | °C
As of 6:58 AM on Monday 26 Jan 2015 (Local Time) from KBKF Reporting Station
Few Clouds Few Clouds  
Wind Chill: 32°   Ceiling: Unl
Heat Index: 39°   Visibility: 10mi
Dew Point: 23°   Wind: 10mph
Humidity: 52%   Direction: 180°S
Pressure: 30.26"   Gusts: NA
Location:  39.74°N, 104.99°W
Report Text: KBKF 261358Z 18009KT 10SM FEW220 04/M05 A3026 RMK AO2A SLP228 T00381052
Loading
Personal Weather Stations






























Interactive Weather Map New forecast layout! Learn more

10-Day Weather Forecast

Advertisements
Track Severe Weather on mobile